Sublette, Kansas
Current Conditions -  °F | °C
As of 8:55 AM on Wednesday 26 Nov 2014 (Local Time) from KLBL Reporting Station
Clear Clear  
Wind Chill: 26°   Ceiling: Unl
Heat Index: 36°   Visibility: 10mi
Dew Point: 27°   Wind: 15mph
Humidity: 70%   Direction: 290°WNW
Pressure: 30.26"   Gusts: 20mph
Location:  37.48°N, 100.84°W
Report Text: KLBL 261455Z AUTO 29013G17KT 10SM CLR 02/M03 A3026 RMK AO1 52030
Loading
Personal Weather Stations






























Interactive Weather Map New forecast layout! Learn more

10-Day Weather Forecast

Advertisements
Track Severe Weather on mobile